Time;durP1;ratioP1;P1;durP2;ratioP2;P2;SDS_P1;SDS_P2;PMS_P1;PMS_P2;Temp;Humidity;BMP_temperature;BMP_pressure;BME280_temperature;BME280_humidity;BME280_pressure;Samples;Min_cycle;Max_cycle;Signal;HPM_P1;HPM_P2
2021/10/10 00:00:38;;;;;;;16.23;9.75;;;9.70;85.40;;;;;;5042851;28;20115;-71
2021/10/10 00:03:04;;;;;;;19.05;11.00;;;9.70;85.70;;;;;;5060302;28;20036;-71
2021/10/10 00:05:30;;;;;;;13.52;9.73;;;9.70;86.00;;;;;;5041561;28;20051;-71
2021/10/10 00:07:55;;;;;;;14.52;9.30;;;9.60;86.10;;;;;;5058571;28;20056;-71
2021/10/10 00:10:21;;;;;;;18.13;9.45;;;9.60;86.20;;;;;;5058535;28;20124;-71
2021/10/10 00:12:47;;;;;;;19.55;9.80;;;9.60;86.30;;;;;;5059402;28;20032;-71
2021/10/10 00:15:13;;;;;;;14.43;9.65;;;9.60;86.50;;;;;;5058890;28;20169;-71
2021/10/10 00:17:40;;;;;;;20.33;10.75;;;9.50;86.60;;;;;;5057676;28;20514;-71
2021/10/10 00:20:07;;;;;;;14.50;9.75;;;9.50;86.90;;;;;;5059953;28;20028;-71
2021/10/10 00:22:33;;;;;;;12.50;9.75;;;9.50;87.00;;;;;;5076286;28;20043;-71
2021/10/10 00:24:59;;;;;;;15.68;10.05;;;9.40;87.20;;;;;;5058151;28;20043;-71
2021/10/10 00:27:25;;;;;;;18.58;11.07;;;9.40;87.50;;;;;;5064935;28;20036;-70
2021/10/10 00:29:51;;;;;;;17.58;10.38;;;9.40;87.70;;;;;;5059280;28;20059;-71
2021/10/10 00:32:17;;;;;;;14.93;10.32;;;9.30;87.80;;;;;;5047500;28;20052;-71
2021/10/10 00:34:43;;;;;;;16.70;10.63;;;9.30;87.90;;;;;;5042232;28;20046;-71
2021/10/10 00:37:09;;;;;;;16.00;10.55;;;9.30;88.10;;;;;;5042095;28;20056;-71
2021/10/10 00:39:35;;;;;;;17.23;9.68;;;9.30;88.20;;;;;;5063114;28;20518;-71
2021/10/10 00:42:01;;;;;;;21.05;10.60;;;9.30;88.20;;;;;;5063404;28;20037;-70
2021/10/10 00:44:27;;;;;;;22.27;10.30;;;9.20;88.00;;;;;;5073541;28;20033;-71
2021/10/10 00:46:53;;;;;;;14.18;8.93;;;9.30;88.20;;;;;;5067331;28;20071;-70
2021/10/10 00:49:18;;;;;;;16.42;9.73;;;9.30;88.20;;;;;;5062432;28;20205;-71
2021/10/10 00:51:45;;;;;;;15.82;9.35;;;9.30;88.20;;;;;;5062119;28;20044;-72
2021/10/10 00:54:15;;;;;;;19.40;10.27;;;9.30;88.10;;;;;;5062470;28;20047;-71
2021/10/10 00:56:43;;;;;;;16.17;10.00;;;9.30;87.80;;;;;;5061122;28;20093;-71
2021/10/10 00:59:13;;;;;;;17.05;10.13;;;9.40;87.70;;;;;;5062300;28;20381;-71
2021/10/10 01:01:40;;;;;;;13.02;9.85;;;9.40;87.80;;;;;;5050185;28;20047;-70
2021/10/10 01:04:06;;;;;;;16.35;10.23;;;9.30;87.90;;;;;;5068014;28;22266;-70
2021/10/10 01:06:32;;;;;;;14.90;10.27;;;9.30;88.10;;;;;;5027794;28;20126;-66
2021/10/10 01:08:58;;;;;;;15.63;11.18;;;9.20;88.10;;;;;;5061189;28;20032;-67
2021/10/10 01:11:26;;;;;;;15.60;10.57;;;9.20;88.20;;;;;;5049246;28;20062;-67
2021/10/10 01:13:53;;;;;;;12.35;9.32;;;9.20;88.30;;;;;;5079982;28;20036;-67
2021/10/10 01:16:18;;;;;;;17.13;9.85;;;9.20;88.40;;;;;;5061412;28;20040;-67
2021/10/10 01:18:44;;;;;;;18.83;11.18;;;9.10;88.50;;;;;;5062300;28;20041;-67
2021/10/10 01:21:10;;;;;;;17.17;10.68;;;9.10;88.60;;;;;;5062241;28;20381;-67
2021/10/10 01:23:35;;;;;;;15.98;10.60;;;9.10;88.80;;;;;;5081708;28;20039;-68
2021/10/10 01:26:01;;;;;;;15.75;10.30;;;9.20;88.90;;;;;;5027971;28;20040;-66
2021/10/10 01:28:27;;;;;;;22.15;10.00;;;9.10;88.90;;;;;;5061861;28;20044;-67
2021/10/10 01:30:52;;;;;;;17.48;10.63;;;9.10;89.10;;;;;;5060844;28;20631;-67
2021/10/10 01:33:18;;;;;;;15.45;9.85;;;9.10;89.30;;;;;;5051987;28;20085;-67
2021/10/10 01:35:44;;;;;;;15.60;9.50;;;9.00;89.40;;;;;;5060728;28;20048;-67
2021/10/10 01:38:14;;;;;;;18.45;10.68;;;9.00;89.60;;;;;;5062089;28;20052;-67
2021/10/10 01:40:43;;;;;;;21.80;10.70;;;9.00;89.80;;;;;;5062176;28;20115;-67
2021/10/10 01:43:09;;;;;;;15.63;10.07;;;9.00;89.90;;;;;;5061607;28;20512;-67
2021/10/10 01:45:35;;;;;;;15.75;10.02;;;9.00;89.90;;;;;;5061705;28;20044;-67
2021/10/10 01:48:01;;;;;;;17.73;9.93;;;9.00;89.90;;;;;;5045753;28;20516;-67
2021/10/10 01:50:27;;;;;;;16.48;10.25;;;8.90;89.90;;;;;;5061431;28;20074;-67
2021/10/10 01:52:52;;;;;;;14.50;11.05;;;8.90;90.00;;;;;;5062138;28;20032;-67
2021/10/10 01:55:19;;;;;;;17.88;11.23;;;8.90;90.00;;;;;;5059606;28;20032;-67
2021/10/10 01:57:46;;;;;;;14.50;10.25;;;8.90;90.00;;;;;;5061373;28;20079;-67
2021/10/10 02:00:12;;;;;;;15.02;9.70;;;8.80;90.00;;;;;;5045623;28;20040;-68
2021/10/10 02:02:39;;;;;;;14.05;10.13;;;8.80;90.00;;;;;;5045305;28;20061;-67
2021/10/10 02:05:06;;;;;;;16.88;10.18;;;8.80;90.00;;;;;;5059016;28;20081;-67
2021/10/10 02:07:31;;;;;;;18.67;10.50;;;8.80;90.00;;;;;;5061059;28;20048;-67
2021/10/10 02:09:57;;;;;;;15.15;10.73;;;8.80;90.00;;;;;;5059972;28;20120;-68
2021/10/10 02:12:23;;;;;;;17.13;10.38;;;8.70;90.10;;;;;;5060930;28;20051;-71
2021/10/10 02:14:49;;;;;;;16.83;10.60;;;8.70;90.10;;;;;;5060274;28;20047;-70
2021/10/10 02:17:14;;;;;;;17.17;10.52;;;8.60;90.10;;;;;;5045057;28;20044;-71
2021/10/10 02:19:40;;;;;;;14.15;10.10;;;8.60;90.10;;;;;;5050719;28;20126;-71
2021/10/10 02:22:06;;;;;;;15.73;10.98;;;8.60;90.10;;;;;;5077043;28;20040;-71
2021/10/10 02:24:32;;;;;;;16.10;10.23;;;8.60;90.20;;;;;;5059864;28;20048;-71
2021/10/10 02:26:57;;;;;;;16.15;10.85;;;8.60;90.30;;;;;;5061492;28;20032;-71
2021/10/10 02:29:23;;;;;;;13.75;10.20;;;8.50;90.40;;;;;;5062780;28;20039;-71
2021/10/10 02:31:49;;;;;;;15.07;10.75;;;8.50;90.40;;;;;;5079378;28;20502;-70
2021/10/10 02:34:18;;;;;;;21.00;11.00;;;8.50;90.50;;;;;;5059249;28;20040;-70
2021/10/10 02:36:45;;;;;;;18.10;10.88;;;8.50;90.50;;;;;;5061892;28;20074;-70
2021/10/10 02:39:11;;;;;;;16.80;11.27;;;8.40;90.60;;;;;;5044504;28;20059;-71
2021/10/10 02:41:37;;;;;;;14.23;10.50;;;8.40;90.70;;;;;;5060419;28;20404;-70
2021/10/10 02:44:04;;;;;;;15.02;10.52;;;8.40;90.70;;;;;;5060483;28;20040;-71
2021/10/10 02:46:29;;;;;;;19.05;11.45;;;8.40;90.80;;;;;;5061098;28;20449;-71
2021/10/10 02:48:56;;;;;;;15.68;10.65;;;8.30;90.80;;;;;;5078372;28;20048;-72
2021/10/10 02:51:22;;;;;;;19.58;12.02;;;8.30;90.80;;;;;;5060678;28;20483;-64
2021/10/10 02:53:47;;;;;;;15.00;10.73;;;8.30;90.90;;;;;;5059129;28;22247;-64
2021/10/10 02:56:13;;;;;;;17.65;11.15;;;8.30;90.80;;;;;;5061112;28;20052;-64
2021/10/10 02:58:40;;;;;;;15.93;9.75;;;8.30;90.80;;;;;;5060639;28;20663;-64
2021/10/10 03:01:06;;;;;;;18.23;10.80;;;8.30;90.90;;;;;;5078115;28;20480;-64
2021/10/10 03:03:32;;;;;;;16.88;10.15;;;8.20;91.00;;;;;;5076834;28;20047;-64
2021/10/10 03:05:58;;;;;;;17.95;10.40;;;8.20;91.00;;;;;;5060010;28;20157;-64
2021/10/10 03:08:23;;;;;;;16.20;10.27;;;8.20;91.00;;;;;;5077798;28;20100;-64
2021/10/10 03:10:49;;;;;;;15.60;10.15;;;8.20;91.10;;;;;;5060626;28;20051;-64
2021/10/10 03:13:14;;;;;;;18.67;9.75;;;8.20;91.10;;;;;;5076279;28;20055;-64
2021/10/10 03:15:41;;;;;;;18.35;9.75;;;8.20;91.00;;;;;;5060055;28;20044;-64
2021/10/10 03:18:06;;;;;;;15.15;10.07;;;8.20;90.90;;;;;;5078350;28;20445;-64
2021/10/10 03:20:32;;;;;;;16.70;10.02;;;8.20;90.90;;;;;;5076548;28;20040;-64
2021/10/10 03:22:58;;;;;;;16.45;10.57;;;8.30;90.90;;;;;;5059107;28;20036;-64
2021/10/10 03:25:24;;;;;;;15.32;10.23;;;8.30;90.90;;;;;;5059350;28;20046;-64
2021/10/10 03:27:50;;;;;;;16.77;9.55;;;8.30;90.90;;;;;;5077252;28;20115;-64
2021/10/10 03:30:15;;;;;;;20.38;10.95;;;8.30;90.80;;;;;;5060853;28;20052;-64
2021/10/10 03:32:41;;;;;;;16.33;9.57;;;8.20;90.80;;;;;;5060499;28;20511;-64
2021/10/10 03:35:08;;;;;;;14.10;9.82;;;8.20;90.80;;;;;;5043816;28;20079;-64
2021/10/10 03:37:36;;;;;;;19.13;10.75;;;8.10;90.90;;;;;;5078454;28;20036;-64
2021/10/10 03:40:08;;;;;;;16.05;10.52;;;8.10;91.00;;;;;;5076218;28;20032;-64
2021/10/10 03:42:34;;;;;;;16.15;11.07;;;8.00;91.10;;;;;;5064704;28;20040;-64
2021/10/10 03:44:59;;;;;;;17.02;9.50;;;8.00;91.20;;;;;;5059411;28;20040;-64
2021/10/10 03:47:25;;;;;;;17.98;10.70;;;8.00;91.20;;;;;;5059533;28;20040;-64
2021/10/10 03:49:51;;;;;;;15.75;9.50;;;8.00;91.20;;;;;;5059221;28;20044;-64
2021/10/10 03:52:17;;;;;;;18.35;11.50;;;7.90;91.20;;;;;;5076789;28;20032;-64
2021/10/10 03:57:27;;;;;;;16.48;11.75;;;7.80;91.30;;;;;;5078044;28;20052;-66
2021/10/10 04:00:14;;;;;;;14.30;10.48;;;7.80;91.30;;;;;;5058797;28;20040;-66
2021/10/10 04:02:40;;;;;;;15.10;10.07;;;7.80;91.40;;;;;;5064587;28;20047;-66
2021/10/10 04:05:16;;;;;;;16.48;10.88;;;7.70;91.40;;;;;;5057941;28;20182;-66
2021/10/10 04:07:42;;;;;;;15.32;10.00;;;7.80;91.40;;;;;;5059789;28;20040;-66
2021/10/10 04:10:08;;;;;;;18.17;10.68;;;7.80;91.50;;;;;;5076888;28;20047;-66
2021/10/10 04:12:33;;;;;;;19.63;11.50;;;7.80;91.50;;;;;;5058770;28;20067;-66
2021/10/10 04:14:59;;;;;;;15.60;11.05;;;7.70;91.50;;;;;;5078491;28;20040;-66
2021/10/10 04:17:25;;;;;;;16.23;11.25;;;7.80;91.60;;;;;;5061121;28;20036;-66
2021/10/10 04:19:50;;;;;;;16.17;10.77;;;7.70;91.50;;;;;;5058330;28;22199;-66
2021/10/10 04:22:16;;;;;;;17.20;11.05;;;7.70;91.50;;;;;;5075670;28;20480;-66
2021/10/10 04:24:42;;;;;;;16.30;11.38;;;7.70;91.50;;;;;;5058720;28;20119;-66
2021/10/10 04:27:07;;;;;;;20.75;10.68;;;7.70;91.50;;;;;;5058829;28;20476;-66
2021/10/10 04:29:33;;;;;;;14.25;10.85;;;7.60;91.50;;;;;;5026658;28;20387;-66
2021/10/10 04:31:59;;;;;;;18.50;11.15;;;7.60;91.50;;;;;;5076085;28;20040;-66
2021/10/10 04:34:25;;;;;;;17.40;12.27;;;7.60;91.60;;;;;;5077892;28;20123;-66
2021/10/10 04:36:50;;;;;;;17.02;11.85;;;7.50;91.60;;;;;;5078434;28;20032;-66
2021/10/10 04:39:16;;;;;;;17.05;10.57;;;7.50;91.60;;;;;;5056873;28;20036;-66
2021/10/10 04:41:42;;;;;;;16.75;11.55;;;7.50;91.70;;;;;;5055975;28;20044;-66
2021/10/10 04:44:07;;;;;;;17.05;10.73;;;7.50;91.80;;;;;;5039694;28;20040;-66
2021/10/10 04:46:33;;;;;;;16.80;11.02;;;7.50;91.90;;;;;;5057225;28;20379;-66
2021/10/10 04:48:59;;;;;;;19.33;11.63;;;7.50;92.10;;;;;;5057516;28;20056;-66
2021/10/10 04:51:24;;;;;;;18.27;10.15;;;7.60;92.10;;;;;;5058668;28;20047;-66
2021/10/10 04:53:50;;;;;;;17.65;11.02;;;7.60;92.20;;;;;;5077105;28;20611;-66
2021/10/10 04:56:16;;;;;;;17.95;11.07;;;7.70;92.20;;;;;;5040427;28;20457;-66
2021/10/10 04:58:41;;;;;;;15.77;10.30;;;7.80;92.10;;;;;;5076556;28;20725;-66
2021/10/10 05:01:08;;;;;;;18.40;11.02;;;7.80;92.10;;;;;;5058544;28;20097;-66
2021/10/10 05:03:34;;;;;;;17.77;11.18;;;7.80;92.10;;;;;;5075776;28;20502;-67
2021/10/10 05:05:59;;;;;;;19.88;11.43;;;7.80;92.00;;;;;;5047119;28;20056;-65
2021/10/10 05:08:25;;;;;;;19.98;11.88;;;7.70;91.80;;;;;;5056505;28;20056;-66
2021/10/10 05:10:51;;;;;;;17.63;12.10;;;7.60;91.80;;;;;;5056929;28;20085;-65
2021/10/10 05:13:17;;;;;;;15.40;10.93;;;7.50;91.90;;;;;;5054136;28;20740;-66
2021/10/10 05:15:42;;;;;;;15.40;10.73;;;7.40;92.00;;;;;;5021557;28;20040;-66
2021/10/10 05:18:08;;;;;;;16.27;10.55;;;7.40;92.30;;;;;;5055334;28;20169;-65
2021/10/10 05:20:34;;;;;;;21.50;12.10;;;7.50;92.60;;;;;;5043515;28;20131;-66
2021/10/10 05:22:59;;;;;;;27.50;12.25;;;7.60;92.80;;;;;;5037566;28;20036;-66
2021/10/10 05:25:25;;;;;;;27.25;11.65;;;7.70;92.40;;;;;;5044381;28;20041;-66
2021/10/10 05:27:51;;;;;;;19.90;11.52;;;7.80;92.40;;;;;;5042270;28;20060;-65
2021/10/10 05:30:16;;;;;;;27.75;14.07;;;8.00;92.60;;;;;;5047129;28;20083;-66
2021/10/10 05:32:42;;;;;;;24.92;12.00;;;8.10;92.40;;;;;;5040928;28;20896;-66
2021/10/10 05:35:08;;;;;;;15.85;9.95;;;8.20;92.00;;;;;;5046677;28;20048;-66
2021/10/10 05:37:33;;;;;;;13.73;10.52;;;8.20;91.70;;;;;;5040272;28;20047;-66
2021/10/10 05:39:59;;;;;;;14.15;10.23;;;8.20;91.50;;;;;;5040713;28;20044;-66
2021/10/10 05:42:25;;;;;;;16.15;10.40;;;8.20;91.60;;;;;;5059000;28;20097;-66
2021/10/10 05:44:50;;;;;;;15.48;9.85;;;8.20;91.50;;;;;;5023548;28;20131;-66
2021/10/10 05:47:16;;;;;;;15.30;9.93;;;8.30;91.50;;;;;;5040859;28;20123;-66
2021/10/10 05:49:42;;;;;;;15.98;10.60;;;8.30;91.40;;;;;;5042544;28;20036;-66
2021/10/10 05:52:08;;;;;;;14.52;11.00;;;8.30;91.30;;;;;;5034902;28;20051;-66
2021/10/10 05:54:36;;;;;;;14.52;10.55;;;8.20;91.00;;;;;;5040066;28;20056;-66
2021/10/10 05:57:06;;;;;;;20.63;11.07;;;8.00;91.00;;;;;;5057037;28;20130;-65
2021/10/10 05:59:37;;;;;;;19.63;10.13;;;7.90;91.10;;;;;;5042468;28;20033;-65
2021/10/10 06:02:03;;;;;;;12.20;9.70;;;7.80;91.10;;;;;;5031996;28;20425;-65
2021/10/10 06:04:30;;;;;;;13.13;9.23;;;7.80;91.60;;;;;;5023753;28;20147;-65
2021/10/10 06:06:55;;;;;;;12.82;8.82;;;7.90;91.90;;;;;;5057470;28;20524;-69
2021/10/10 06:09:21;;;;;;;12.25;8.25;;;8.00;92.20;;;;;;5062340;28;20067;-60
2021/10/10 06:11:47;;;;;;;11.90;8.88;;;8.20;92.40;;;;;;5078304;28;20048;-61
2021/10/10 06:14:13;;;;;;;17.52;9.85;;;8.30;92.50;;;;;;5071378;28;20040;-61
2021/10/10 06:16:39;;;;;;;17.85;9.85;;;8.40;92.10;;;;;;5042894;28;20044;-64
2021/10/10 06:19:05;;;;;;;16.38;10.80;;;8.30;91.60;;;;;;5078601;28;20055;-64
2021/10/10 06:21:31;;;;;;;14.60;10.68;;;8.10;91.30;;;;;;5077570;28;20043;-64
2021/10/10 06:23:57;;;;;;;17.15;11.15;;;7.90;91.40;;;;;;5059200;28;20032;-64
2021/10/10 06:26:23;;;;;;;15.43;10.75;;;7.70;91.50;;;;;;5060311;28;20399;-64
2021/10/10 06:28:49;;;;;;;14.65;10.57;;;7.50;91.70;;;;;;5061227;28;20083;-64
2021/10/10 06:31:15;;;;;;;15.82;10.40;;;7.50;91.90;;;;;;5076566;28;20074;-64
2021/10/10 06:33:41;;;;;;;17.27;11.35;;;7.60;92.10;;;;;;5077777;28;20036;-64
2021/10/10 06:36:07;;;;;;;17.27;11.32;;;7.90;92.00;;;;;;5076859;28;20089;-64
2021/10/10 06:38:32;;;;;;;15.05;10.43;;;8.20;91.60;;;;;;5065627;28;20068;-64
2021/10/10 06:40:58;;;;;;;19.38;14.82;;;8.30;91.40;;;;;;5059293;28;20028;-64
2021/10/10 06:43:24;;;;;;;16.13;11.13;;;8.40;91.20;;;;;;5059589;28;20046;-64
2021/10/10 06:45:50;;;;;;;15.57;10.82;;;8.30;90.90;;;;;;5079096;28;20040;-64
2021/10/10 06:48:16;;;;;;;17.02;11.98;;;8.20;90.80;;;;;;5059180;28;20085;-64
2021/10/10 06:50:41;;;;;;;17.83;11.23;;;8.00;91.00;;;;;;5076581;28;20114;-65
2021/10/10 06:53:07;;;;;;;21.38;11.40;;;7.80;91.20;;;;;;5042913;28;20059;-66
2021/10/10 06:55:33;;;;;;;13.02;10.85;;;7.70;91.40;;;;;;5058290;28;20373;-66
2021/10/10 06:57:58;;;;;;;16.58;11.40;;;7.70;91.60;;;;;;5077348;28;20096;-65
2021/10/10 07:00:24;;;;;;;15.07;11.32;;;7.80;91.80;;;;;;5058283;28;20047;-66
2021/10/10 07:02:50;;;;;;;15.95;11.60;;;7.90;91.90;;;;;;5065897;28;20041;-64
2021/10/10 07:05:17;;;;;;;17.83;11.68;;;8.00;91.80;;;;;;5059698;28;20088;-64
2021/10/10 07:07:43;;;;;;;17.30;11.50;;;8.10;91.70;;;;;;5056954;28;20040;-66
2021/10/10 07:10:10;;;;;;;14.27;11.15;;;8.20;91.60;;;;;;5058839;28;20114;-66
2021/10/10 07:12:36;;;;;;;15.32;10.70;;;8.30;91.60;;;;;;5043196;28;20033;-66
2021/10/10 07:15:02;;;;;;;14.00;10.98;;;8.30;91.60;;;;;;5059690;28;20039;-66
2021/10/10 07:17:29;;;;;;;16.52;11.27;;;8.40;91.70;;;;;;5077516;28;20530;-66
2021/10/10 07:20:02;;;;;;;20.73;11.63;;;8.40;91.60;;;;;;5059362;28;20039;-66
2021/10/10 07:22:31;;;;;;;13.73;11.13;;;8.40;91.40;;;;;;5059576;28;20040;-64
2021/10/10 07:25:07;;;;;;;16.85;10.95;;;8.40;91.50;;;;;;5061563;28;20060;-65
2021/10/10 07:27:41;;;;;;;18.73;12.00;;;8.50;91.60;;;;;;5058240;28;20044;-64
2021/10/10 07:30:10;;;;;;;19.45;12.68;;;8.50;91.60;;;;;;5076925;28;20041;-63
2021/10/10 07:32:37;;;;;;;17.20;12.32;;;8.50;91.60;;;;;;5076876;28;20491;-63
2021/10/10 07:35:04;;;;;;;12.70;9.85;;;8.60;91.60;;;;;;5060635;28;20048;-66
2021/10/10 07:37:30;;;;;;;15.73;10.93;;;8.70;91.60;;;;;;5059785;28;20052;-67
2021/10/10 07:39:56;;;;;;;12.95;10.65;;;9.10;91.50;;;;;;5058253;28;20119;-65
2021/10/10 07:42:21;;;;;;;15.00;10.65;;;9.40;91.30;;;;;;5059503;28;20047;-64
2021/10/10 07:44:54;;;;;;;20.23;11.20;;;9.70;90.60;;;;;;5061052;28;20136;-66
2021/10/10 07:49:50;;;;;;;15.85;12.20;;;9.80;89.60;;;;;;5058434;28;20047;-62
2021/10/10 07:52:16;;;;;;;16.70;11.93;;;9.60;89.70;;;;;;5077336;28;20098;-66
2021/10/10 07:54:43;;;;;;;17.27;11.48;;;9.50;89.90;;;;;;5059508;28;20044;-67
2021/10/10 07:57:09;;;;;;;16.48;12.20;;;9.60;90.00;;;;;;5059167;28;20041;-67
2021/10/10 07:59:35;;;;;;;13.85;11.27;;;9.50;90.20;;;;;;5058840;28;20097;-66
2021/10/10 08:02:01;;;;;;;19.52;12.20;;;9.80;90.40;;;;;;5076964;28;20543;-66
2021/10/10 08:04:28;;;;;;;18.42;11.52;;;10.20;90.10;;;;;;5060565;28;20028;-66
2021/10/10 08:06:54;;;;;;;16.58;11.25;;;10.30;89.00;;;;;;5057817;28;20095;-67
2021/10/10 08:09:21;;;;;;;17.13;12.10;;;10.50;88.50;;;;;;5058614;28;20059;-66
2021/10/10 08:11:47;;;;;;;15.02;11.88;;;10.50;88.20;;;;;;5058718;28;20086;-64
2021/10/10 08:14:13;;;;;;;15.43;11.23;;;10.60;87.80;;;;;;5077749;28;20055;-65
2021/10/10 08:16:40;;;;;;;15.52;12.32;;;10.50;87.40;;;;;;5059145;28;20036;-67
2021/10/10 08:19:06;;;;;;;16.60;11.57;;;10.40;87.50;;;;;;5057327;28;20040;-69
2021/10/10 08:21:32;;;;;;;17.73;11.65;;;10.40;88.00;;;;;;5060257;28;20039;-66
2021/10/10 08:24:01;;;;;;;16.30;11.13;;;10.50;88.40;;;;;;5060536;28;20044;-64
2021/10/10 08:26:27;;;;;;;18.27;12.68;;;10.60;88.20;;;;;;5057347;28;20040;-64
2021/10/10 08:28:52;;;;;;;17.17;12.10;;;10.70;87.90;;;;;;5076036;28;20044;-65
2021/10/10 08:31:18;;;;;;;17.92;12.40;;;10.70;87.60;;;;;;5058083;28;20047;-71
2021/10/10 08:33:44;;;;;;;19.42;12.30;;;10.60;87.80;;;;;;5058269;28;20120;-68
2021/10/10 08:36:10;;;;;;;17.70;11.43;;;10.60;88.40;;;;;;5059103;28;20056;-67
2021/10/10 08:38:36;;;;;;;15.75;12.02;;;10.80;89.20;;;;;;5042976;28;20044;-65
2021/10/10 08:41:03;;;;;;;18.92;12.93;;;10.90;88.20;;;;;;5074011;28;20028;-64
2021/10/10 08:43:33;;;;;;;21.77;12.75;;;11.00;87.80;;;;;;5047676;28;20852;-64
2021/10/10 08:46:04;;;;;;;18.73;12.25;;;11.20;87.90;;;;;;5075999;28;20197;-64
2021/10/10 08:48:31;;;;;;;18.45;12.98;;;11.40;87.40;;;;;;5075510;28;20654;-66
2021/10/10 08:50:58;;;;;;;20.98;14.60;;;11.50;86.90;;;;;;5057485;28;20387;-66
2021/10/10 08:53:24;;;;;;;18.58;13.20;;;11.60;86.50;;;;;;5055150;28;20040;-67
2021/10/10 08:55:51;;;;;;;20.15;13.18;;;11.80;86.20;;;;;;5056650;28;20388;-67
2021/10/10 08:58:19;;;;;;;17.30;12.88;;;11.90;85.30;;;;;;5060100;28;20175;-68
2021/10/10 09:00:52;;;;;;;18.67;12.50;;;11.80;85.30;;;;;;5062379;28;20511;-67
2021/10/10 09:03:18;;;;;;;20.47;13.83;;;11.70;85.70;;;;;;5062499;28;20051;-68
2021/10/10 09:05:47;;;;;;;24.48;15.20;;;11.80;86.30;;;;;;5061270;28;20117;-68
2021/10/10 09:08:13;;;;;;;17.05;14.15;;;11.90;86.10;;;;;;5061598;28;20411;-68
2021/10/10 09:10:39;;;;;;;17.80;13.00;;;11.80;86.00;;;;;;5029122;28;20072;-68
2021/10/10 09:13:07;;;;;;;18.00;13.50;;;11.60;86.40;;;;;;5072384;28;20052;-68
2021/10/10 09:15:35;;;;;;;20.00;14.55;;;11.50;86.80;;;;;;5062306;28;20052;-68
2021/10/10 09:18:02;;;;;;;21.55;13.68;;;11.40;87.60;;;;;;5062061;28;20095;-68
2021/10/10 09:20:41;;;;;;;20.98;13.93;;;11.40;87.40;;;;;;5060900;28;20441;-73
2021/10/10 09:23:30;;;;;;;19.55;14.25;;;11.40;87.50;;;;;;5060258;28;20036;-68
2021/10/10 09:25:58;;;;;;;24.52;16.17;;;11.50;88.00;;;;;;5061007;28;20041;-68
2021/10/10 09:28:26;;;;;;;22.48;14.18;;;11.40;88.20;;;;;;5064802;28;20051;-67
2021/10/10 09:31:00;;;;;;;22.33;15.18;;;11.20;88.80;;;;;;5044532;28;20472;-67
2021/10/10 09:33:49;;;;;;;19.95;15.15;;;11.20;88.60;;;;;;5062930;28;20487;-67
2021/10/10 09:36:20;;;;;;;19.52;14.07;;;11.30;89.00;;;;;;5062500;28;20043;-67
2021/10/10 09:39:00;;;;;;;19.10;14.02;;;11.40;89.60;;;;;;5060854;28;20044;-67
2021/10/10 09:41:33;;;;;;;19.55;14.27;;;11.90;89.80;;;;;;5059176;28;20078;-63
2021/10/10 09:44:01;;;;;;;17.45;13.27;;;12.40;88.70;;;;;;5059435;28;20052;-64
2021/10/10 09:46:29;;;;;;;87.25;53.75;;;12.90;88.70;;;;;;5061701;28;20454;-63
2021/10/10 09:48:55;;;;;;;18.60;12.98;;;13.50;88.50;;;;;;5079414;28;20048;-66
2021/10/10 09:51:33;;;;;;;22.48;14.25;;;13.90;87.40;;;;;;5058644;28;20484;-67
2021/10/10 09:54:00;;;;;;;22.60;13.55;;;14.30;86.30;;;;;;5061659;28;20063;-67
2021/10/10 09:56:26;;;;;;;19.67;14.48;;;14.30;84.10;;;;;;5060179;28;20056;-68
2021/10/10 09:58:52;;;;;;;21.40;14.27;;;14.30;84.10;;;;;;5043878;28;20044;-69
2021/10/10 10:01:22;;;;;;;23.42;15.60;;;14.30;83.60;;;;;;5060590;28;20105;-68
2021/10/10 10:04:00;;;;;;;23.63;14.98;;;14.40;83.50;;;;;;5061630;28;20044;-69
2021/10/10 10:06:27;;;;;;;20.05;13.93;;;14.60;83.20;;;;;;5061504;28;20056;-69
2021/10/10 10:09:01;;;;;;;17.83;13.57;;;14.90;82.40;;;;;;5059408;28;21030;-68
2021/10/10 10:11:34;;;;;;;19.45;15.15;;;15.10;81.90;;;;;;5059777;28;20063;-67
2021/10/10 10:14:01;;;;;;;22.40;15.20;;;15.30;81.80;;;;;;5060916;28;20097;-68
2021/10/10 10:16:29;;;;;;;21.45;15.55;;;15.60;81.30;;;;;;5060827;28;20036;-69
2021/10/10 10:18:57;;;;;;;21.85;14.43;;;15.80;81.10;;;;;;5060132;28;20036;-69
2021/10/10 10:21:23;;;;;;;19.08;13.80;;;16.00;80.40;;;;;;5060431;28;20036;-68
2021/10/10 10:23:50;;;;;;;16.55;13.73;;;16.20;79.90;;;;;;5049728;28;20085;-68
2021/10/10 10:26:17;;;;;;;16.90;14.32;;;16.50;79.40;;;;;;5062909;28;20055;-68
2021/10/10 10:28:43;;;;;;;18.88;13.68;;;16.60;78.40;;;;;;5060143;28;20048;-68
2021/10/10 10:31:12;;;;;;;21.17;16.38;;;16.70;78.00;;;;;;5044556;28;20070;-69
2021/10/10 10:33:38;;;;;;;16.15;13.27;;;16.80;77.10;;;;;;5060879;28;20051;-69
2021/10/10 10:36:04;;;;;;;19.58;14.00;;;16.90;77.30;;;;;;5042676;28;20044;-68
2021/10/10 10:38:44;;;;;;;22.00;13.90;;;17.10;77.50;;;;;;5065859;28;20093;-68
2021/10/10 10:41:48;;;;;;;21.10;14.32;;;17.20;77.10;;;;;;5059371;28;20072;-68
2021/10/10 10:44:43;;;;;;;23.10;14.45;;;17.40;76.70;;;;;;5059698;28;20053;-69
2021/10/10 10:47:14;;;;;;;19.08;14.07;;;17.40;76.20;;;;;;5059148;28;20059;-69
2021/10/10 10:49:59;;;;;;;19.83;14.07;;;17.30;75.60;;;;;;5059518;28;20044;-70
2021/10/10 10:52:37;;;;;;;19.90;15.13;;;17.40;75.70;;;;;;5058658;28;20085;-69
2021/10/10 10:55:40;;;;;;;19.63;14.45;;;17.50;75.20;;;;;;5058998;28;20897;-69
2021/10/10 10:58:06;;;;;;;24.02;14.80;;;17.60;75.10;;;;;;5056874;28;20063;-68
2021/10/10 11:00:43;;;;;;;18.67;14.90;;;17.60;74.30;;;;;;5060170;28;20852;-68
2021/10/10 11:03:13;;;;;;;19.98;14.07;;;17.40;74.10;;;;;;5058677;28;20040;-69
2021/10/10 11:05:49;;;;;;;19.60;15.98;;;17.40;73.40;;;;;;5059460;28;20047;-70
2021/10/10 11:08:30;;;;;;;21.23;15.57;;;17.30;73.40;;;;;;5078265;28;20044;-67
2021/10/10 11:11:05;;;;;;;21.35;15.32;;;17.00;74.90;;;;;;5058003;28;20135;-67
2021/10/10 11:13:54;;;;;;;24.67;16.23;;;16.80;75.60;;;;;;5058086;28;20043;-66
2021/10/10 11:16:24;;;;;;;23.38;16.58;;;16.80;76.80;;;;;;5074437;28;20032;-67
2021/10/10 11:19:10;;;;;;;23.10;15.50;;;16.80;77.40;;;;;;5058454;28;20063;-66
2021/10/10 11:21:41;;;;;;;20.83;15.93;;;16.90;77.40;;;;;;5059660;28;20044;-66
2021/10/10 11:24:19;;;;;;;20.20;14.90;;;17.00;77.70;;;;;;5060117;28;20051;-67
2021/10/10 11:26:46;;;;;;;22.70;13.98;;;17.10;78.10;;;;;;5075907;28;20048;-67
2021/10/10 11:29:15;;;;;;;19.52;13.38;;;17.20;78.10;;;;;;5046152;28;20047;-66
2021/10/10 11:31:43;;;;;;;19.55;14.65;;;17.30;78.70;;;;;;5057817;28;20067;-67
2021/10/10 11:34:12;;;;;;;18.48;11.95;;;17.40;78.60;;;;;;5059413;28;20052;-67
2021/10/10 11:36:38;;;;;;;19.33;14.02;;;17.50;79.30;;;;;;5044651;28;20109;-67
2021/10/10 11:39:08;;;;;;;25.30;13.80;;;17.60;79.30;;;;;;5059797;28;20053;-67
2021/10/10 11:41:56;;;;;;;16.80;11.05;;;17.60;79.40;;;;;;5058187;28;20499;-67
2021/10/10 11:44:45;;;;;;;22.42;11.80;;;17.50;79.10;;;;;;5042154;28;20036;-68
2021/10/10 11:47:20;;;;;;;22.27;16.48;;;17.60;79.70;;;;;;5059850;28;20048;-67
2021/10/10 11:49:55;;;;;;;22.60;16.67;;;17.70;78.90;;;;;;5058307;28;20445;-67
2021/10/10 11:52:42;;;;;;;17.52;12.15;;;17.70;77.50;;;;;;5057897;28;20051;-67
2021/10/10 11:57:39;;;;;;;18.00;11.20;;;17.80;77.90;;;;;;5058287;28;20066;-68
2021/10/10 12:00:10;;;;;;;13.82;10.38;;;17.80;78.80;;;;;;5058508;28;20590;-69
2021/10/10 12:02:44;;;;;;;19.90;14.63;;;17.90;79.80;;;;;;5077968;28;20458;-68
2021/10/10 12:05:12;;;;;;;15.98;10.63;;;17.90;78.80;;;;;;5058492;28;20044;-68
2021/10/10 12:07:39;;;;;;;25.55;15.65;;;18.00;79.50;;;;;;5058913;28;20048;-70
2021/10/10 12:10:07;;;;;;;28.15;18.67;;;18.00;78.60;;;;;;5057716;28;20504;-69
2021/10/10 12:12:34;;;;;;;25.88;18.98;;;17.90;77.50;;;;;;5057107;28;20053;-69
2021/10/10 12:15:00;;;;;;;26.23;20.83;;;17.80;77.40;;;;;;5076635;28;20068;-69
2021/10/10 12:17:26;;;;;;;22.58;14.93;;;17.80;77.30;;;;;;5045439;28;20117;-69
2021/10/10 12:19:52;;;;;;;20.02;14.35;;;17.90;78.10;;;;;;5058283;28;20490;-70
2021/10/10 12:22:18;;;;;;;24.52;18.42;;;17.90;77.90;;;;;;5064396;28;20043;-71
2021/10/10 12:24:45;;;;;;;28.15;17.92;;;18.00;78.10;;;;;;5059573;28;20043;-72
2021/10/10 12:27:11;;;;;;;28.63;18.15;;;17.90;77.80;;;;;;5057852;28;20033;-72
2021/10/10 12:29:43;;;;;;;27.90;19.65;;;17.90;78.20;;;;;;5058888;28;20098;-71
2021/10/10 12:32:18;;;;;;;23.45;17.35;;;17.90;77.90;;;;;;5057349;28;20771;-73
2021/10/10 12:34:44;;;;;;;26.25;19.65;;;17.90;78.70;;;;;;5061566;28;20088;-72
2021/10/10 12:37:21;;;;;;;15.63;11.07;;;17.90;77.40;;;;;;5062596;28;20056;-71
2021/10/10 12:39:48;;;;;;;18.73;11.20;;;17.90;78.80;;;;;;5062927;28;20110;-71
2021/10/10 12:42:17;;;;;;;17.17;10.80;;;18.00;79.70;;;;;;5062000;28;20216;-73
2021/10/10 12:45:17;;;;;;;25.23;18.10;;;18.10;79.90;;;;;;5063205;28;20624;-72
2021/10/10 12:47:42;;;;;;;20.40;15.45;;;18.30;78.70;;;;;;5063278;28;20044;-74